createdAt,value
2019-05-10T00:01:56.846Z,7.80
2019-05-10T00:04:43.997Z,7.70
2019-05-10T00:07:33.002Z,7.60
2019-05-10T00:10:01.167Z,7.90
2019-05-10T00:12:38.969Z,7.50
2019-05-10T00:15:08.118Z,7.80
2019-05-10T00:17:36.930Z,7.50
2019-05-10T00:20:06.176Z,7.60
2019-05-10T00:22:35.139Z,7.50
2019-05-10T00:25:05.207Z,7.50
2019-05-10T00:27:34.414Z,7.50
2019-05-10T00:30:03.426Z,7.50
2019-05-10T00:32:32.255Z,7.40
2019-05-10T00:35:01.089Z,7.50
2019-05-10T00:37:30.046Z,7.60
2019-05-10T00:39:58.914Z,7.70
2019-05-10T00:42:27.823Z,8.20
2019-05-10T00:44:56.790Z,8.10
2019-05-10T00:47:25.703Z,8.20
2019-05-10T00:49:54.518Z,8.20
2019-05-10T00:52:23.345Z,8.00
2019-05-10T00:54:52.195Z,8.10
2019-05-10T00:57:21.172Z,8.10
2019-05-10T00:59:50.004Z,8.10
2019-05-10T01:02:18.955Z,8.00
2019-05-10T01:04:47.771Z,8.20
2019-05-10T01:07:16.613Z,8.10
2019-05-10T01:09:45.429Z,8.10
2019-05-10T01:12:14.355Z,8.20
2019-05-10T01:14:43.257Z,8.20
2019-05-10T01:17:12.112Z,8.00
2019-05-10T01:19:41.007Z,8.00
2019-05-10T01:22:09.834Z,8.10
2019-05-10T01:24:38.649Z,8.20
2019-05-10T01:27:07.562Z,8.00
2019-05-10T01:29:36.389Z,8.20
2019-05-10T01:32:05.369Z,8.10
2019-05-10T01:34:34.195Z,8.00
2019-05-10T01:37:02.995Z,8.00
2019-05-10T01:39:31.793Z,8.00
2019-05-10T01:42:00.678Z,8.20
2019-05-10T01:44:29.471Z,8.10
2019-05-10T01:46:58.279Z,8.30
2019-05-10T01:49:27.088Z,8.00
2019-05-10T01:51:55.968Z,8.00
2019-05-10T01:54:24.841Z,8.20
2019-05-10T01:56:53.660Z,8.20
2019-05-10T01:59:22.454Z,8.00
2019-05-10T02:01:51.336Z,8.10
2019-05-10T02:04:20.147Z,8.00
2019-05-10T02:06:49.091Z,8.20
2019-05-10T02:09:18.034Z,8.20
2019-05-10T02:11:46.925Z,8.20
2019-05-10T02:14:15.873Z,8.20
2019-05-10T02:16:44.764Z,8.00
2019-05-10T02:19:13.569Z,8.20
2019-05-10T02:21:42.452Z,8.00
2019-05-10T02:24:11.236Z,8.00
2019-05-10T02:26:40.066Z,8.10
2019-05-10T02:29:08.929Z,8.20
2019-05-10T02:31:37.740Z,7.90
2019-05-10T02:34:06.533Z,8.10
2019-05-10T02:36:35.401Z,8.20
2019-05-10T02:39:05.913Z,8.20
2019-05-10T02:41:35.010Z,8.10
2019-05-10T02:44:03.955Z,7.90
2019-05-10T02:46:32.853Z,7.90
2019-05-10T02:49:01.654Z,7.90
2019-05-10T02:51:30.449Z,7.90
2019-05-10T02:54:00.300Z,8.00
2019-05-10T02:56:31.475Z,8.10
2019-05-10T02:59:01.586Z,8.20
2019-05-10T03:01:30.590Z,8.20
2019-05-10T03:04:01.813Z,7.90
2019-05-10T03:06:34.739Z,7.90
2019-05-10T03:09:07.271Z,7.90
2019-05-10T03:11:45.982Z,7.90
2019-05-10T03:14:19.345Z,8.00
2019-05-10T03:16:52.388Z,8.20
2019-05-10T03:19:23.532Z,7.80
2019-05-10T03:22:06.105Z,8.10
2019-05-10T03:24:35.065Z,8.10
2019-05-10T03:27:04.336Z,8.10
2019-05-10T03:29:33.208Z,8.00
2019-05-10T03:32:02.165Z,7.80
2019-05-10T03:34:31.209Z,8.10
2019-05-10T03:37:00.166Z,7.70
2019-05-10T03:39:29.187Z,8.10
2019-05-10T03:41:58.173Z,7.70
2019-05-10T03:44:26.981Z,7.70
2019-05-10T03:46:55.769Z,7.70
2019-05-10T03:49:24.648Z,7.60
2019-05-10T03:51:53.460Z,7.70
2019-05-10T03:54:22.509Z,7.70
2019-05-10T03:57:11.199Z,7.80
2019-05-10T03:59:21.986Z,7.70
2019-05-10T04:01:50.852Z,7.60
2019-05-10T04:04:19.740Z,7.80
2019-05-10T04:06:48.533Z,7.70
2019-05-10T04:09:17.347Z,7.70
2019-05-10T04:11:46.157Z,7.80
2019-05-10T04:14:14.974Z,7.60
2019-05-10T04:16:43.837Z,7.60
2019-05-10T04:19:12.731Z,7.60
2019-05-10T04:21:41.598Z,7.80
2019-05-10T04:24:10.410Z,7.70
2019-05-10T04:26:39.362Z,7.80
2019-05-10T04:29:08.245Z,7.60
2019-05-10T04:31:37.304Z,7.80
2019-05-10T04:34:06.113Z,7.60
2019-05-10T04:36:34.909Z,7.90
2019-05-10T04:39:05.786Z,7.90
2019-05-10T04:41:34.606Z,7.70
2019-05-10T04:44:03.569Z,7.70
2019-05-10T04:46:32.436Z,7.70
2019-05-10T04:49:01.312Z,7.50
2019-05-10T04:51:30.257Z,8.10
2019-05-10T04:53:59.064Z,8.10
2019-05-10T04:56:27.871Z,7.80
2019-05-10T04:58:56.677Z,8.10
2019-05-10T05:01:25.542Z,7.90
2019-05-10T05:03:54.425Z,7.70
2019-05-10T05:06:23.211Z,7.80
2019-05-10T05:08:52.027Z,7.80
2019-05-10T05:11:20.806Z,7.80
2019-05-10T05:13:49.634Z,7.60
2019-05-10T05:16:18.432Z,7.60
2019-05-10T05:18:47.282Z,7.80
2019-05-10T05:21:16.166Z,7.50
2019-05-10T05:23:44.958Z,7.50
2019-05-10T05:26:13.760Z,7.50
2019-05-10T05:28:42.566Z,7.50
2019-05-10T05:31:11.474Z,7.70
2019-05-10T05:33:40.267Z,7.70
2019-05-10T05:36:09.137Z,7.80
2019-05-10T05:38:40.429Z,7.50
2019-05-10T05:41:08.485Z,7.50
2019-05-10T05:43:45.595Z,7.50
2019-05-10T05:46:07.812Z,7.70
2019-05-10T05:48:40.382Z,7.50
2019-05-10T05:51:07.146Z,7.50
2019-05-10T05:53:42.355Z,7.50
2019-05-10T05:56:12.713Z,7.80
2019-05-10T05:58:38.064Z,7.80
2019-05-10T06:01:07.772Z,7.50
2019-05-10T06:03:36.587Z,7.50
2019-05-10T06:06:15.636Z,7.50
2019-05-10T06:08:36.554Z,7.80
2019-05-10T06:11:08.967Z,8.10
2019-05-10T06:13:36.087Z,7.90
2019-05-10T06:16:06.286Z,7.90
2019-05-10T06:18:35.558Z,7.90
2019-05-10T06:21:04.461Z,7.90
2019-05-10T06:23:35.176Z,7.80
2019-05-10T06:26:03.905Z,7.70
2019-05-10T06:28:57.631Z,7.70
2019-05-10T06:31:03.255Z,7.70
2019-05-10T06:33:32.081Z,7.80
2019-05-10T06:36:00.906Z,7.90
2019-05-10T06:38:29.782Z,8.00
2019-05-10T06:40:58.673Z,8.20
2019-05-10T06:43:27.452Z,7.90
2019-05-10T06:45:56.272Z,8.10
2019-05-10T06:48:27.374Z,7.90
2019-05-10T06:50:55.592Z,8.20
2019-05-10T06:53:24.384Z,7.80
2019-05-10T06:55:53.331Z,7.80
2019-05-10T06:58:22.120Z,7.60
2019-05-10T07:00:50.923Z,7.90
2019-05-10T07:03:19.721Z,7.60
2019-05-10T07:05:48.586Z,7.80
2019-05-10T07:08:20.425Z,7.50
2019-05-10T07:10:47.992Z,7.50
2019-05-10T07:13:17.189Z,7.80
2019-05-10T07:15:46.041Z,7.60
2019-05-10T07:18:16.731Z,7.60
2019-05-10T07:20:46.007Z,7.80
2019-05-10T07:23:14.944Z,7.80
2019-05-10T07:25:46.529Z,8.10
2019-05-10T07:28:15.640Z,8.10
2019-05-10T07:30:44.872Z,8.20
2019-05-10T07:33:13.652Z,8.20
2019-05-10T07:35:42.538Z,8.10
2019-05-10T07:38:11.406Z,8.20
2019-05-10T07:40:40.292Z,8.00
2019-05-10T07:43:09.244Z,8.00
2019-05-10T07:45:38.186Z,8.20
2019-05-10T07:48:08.263Z,8.30
2019-05-10T07:50:42.387Z,8.00
2019-05-10T07:53:08.037Z,8.20
2019-05-10T07:55:36.835Z,8.20
2019-05-10T07:58:07.047Z,8.10
2019-05-10T08:00:37.880Z,8.50
2019-05-10T08:03:15.816Z,8.30
2019-05-10T08:05:39.177Z,8.50
2019-05-10T08:08:09.560Z,8.50
2019-05-10T08:10:39.813Z,8.20
2019-05-10T08:13:08.618Z,8.20
2019-05-10T08:15:38.421Z,8.20
2019-05-10T08:18:09.621Z,8.10
2019-05-10T08:20:49.449Z,7.90
2019-05-10T08:23:08.631Z,8.10
2019-05-10T08:25:43.990Z,8.20
2019-05-10T08:28:08.024Z,8.40
2019-05-10T08:30:42.578Z,8.50
2019-05-10T08:33:12.009Z,8.50
2019-05-10T08:35:45.877Z,8.30
2019-05-10T08:38:12.974Z,8.50
2019-05-10T08:40:42.764Z,8.50
2019-05-10T08:43:15.992Z,8.20
2019-05-10T08:45:44.903Z,8.50
2019-05-10T08:48:13.288Z,8.30
2019-05-10T08:50:52.259Z,8.40
2019-05-10T08:53:16.349Z,8.40
2019-05-10T08:55:43.512Z,8.60
2019-05-10T08:58:12.601Z,8.50
2019-05-10T09:00:53.836Z,8.50
2019-05-10T09:03:18.335Z,8.50
2019-05-10T09:05:43.303Z,8.50
2019-05-10T09:08:19.642Z,8.20
2019-05-10T09:10:42.985Z,8.30
2019-05-10T09:13:12.831Z,8.30
2019-05-10T09:15:51.158Z,8.10
2019-05-10T09:18:12.920Z,7.90
2019-05-10T09:20:42.340Z,8.10
2019-05-10T09:23:15.518Z,8.10
2019-05-10T09:25:42.673Z,8.00
2019-05-10T09:28:16.781Z,8.00
2019-05-10T09:30:56.855Z,8.20
2019-05-10T09:33:14.298Z,8.00
2019-05-10T09:35:51.528Z,8.20
2019-05-10T09:38:14.164Z,8.00
2019-05-10T09:40:51.351Z,8.10
2019-05-10T09:43:14.932Z,8.20
2019-05-10T09:45:44.129Z,8.20
2019-05-10T09:48:13.094Z,8.20
2019-05-10T09:50:46.852Z,8.10
2019-05-10T09:53:15.318Z,8.10
2019-05-10T09:55:45.443Z,8.00
2019-05-10T09:58:13.645Z,8.20
2019-05-10T10:00:42.499Z,8.10
2019-05-10T10:03:12.922Z,8.20
2019-05-10T10:05:42.108Z,8.60
2019-05-10T10:08:11.142Z,8.60
2019-05-10T10:10:40.454Z,9.00
2019-05-10T10:13:13.546Z,8.90
2019-05-10T10:15:39.976Z,8.90
2019-05-10T10:18:12.618Z,8.90
2019-05-10T10:20:43.499Z,9.00
2019-05-10T10:23:12.151Z,8.90
2019-05-10T10:25:42.254Z,8.70
2019-05-10T10:28:16.897Z,8.70
2019-05-10T10:30:42.320Z,8.70
2019-05-10T10:33:14.808Z,8.50
2019-05-10T10:35:41.661Z,8.60
2019-05-10T10:38:10.658Z,8.50
2019-05-10T10:40:44.507Z,8.50
2019-05-10T10:43:10.020Z,8.60
2019-05-10T10:45:38.821Z,9.00
2019-05-10T10:48:11.266Z,9.10
2019-05-10T10:50:38.129Z,9.60
2019-05-10T10:53:08.058Z,10.20
2019-05-10T10:55:40.030Z,10.60
2019-05-10T10:58:07.623Z,11.20
2019-05-10T11:00:38.905Z,11.10
2019-05-10T11:03:07.867Z,11.10
2019-05-10T11:05:36.889Z,11.10
2019-05-10T11:08:05.840Z,11.10
2019-05-10T11:10:34.666Z,10.80
2019-05-10T11:13:13.228Z,10.50
2019-05-10T11:15:36.697Z,10.00
2019-05-10T11:18:05.737Z,9.80
2019-05-10T11:20:34.669Z,9.60
2019-05-10T11:23:03.530Z,9.50
2019-05-10T11:25:32.471Z,9.20
2019-05-10T11:28:01.866Z,9.10
2019-05-10T11:30:32.469Z,9.20
2019-05-10T11:33:03.120Z,9.40
2019-05-10T11:35:34.455Z,9.80
2019-05-10T11:38:06.865Z,10.40
2019-05-10T11:40:35.178Z,11.10
2019-05-10T11:43:03.698Z,11.70
2019-05-10T11:45:35.299Z,11.90
2019-05-10T11:48:03.161Z,12.20
2019-05-10T11:50:35.269Z,12.50
2019-05-10T11:53:10.296Z,12.50
2019-05-10T11:58:08.747Z,12.10
2019-05-10T12:00:37.020Z,11.70
2019-05-10T12:05:42.260Z,11.10
2019-05-10T12:08:13.080Z,11.40
2019-05-10T12:10:44.889Z,11.90
2019-05-10T12:13:19.122Z,12.30
2019-05-10T12:15:43.074Z,12.60
2019-05-10T12:20:54.718Z,12.90
2019-05-10T12:23:23.118Z,12.90
2019-05-10T12:25:57.915Z,12.40
2019-05-10T12:26:06.158Z,11.20
2019-05-10T12:26:27.160Z,12.50
2019-05-10T12:26:59.149Z,12.70
2019-05-10T12:28:15.435Z,11.80
2019-05-10T12:30:44.979Z,11.80
2019-05-10T12:33:24.085Z,11.90
2019-05-10T12:35:47.381Z,12.00
2019-05-10T12:38:14.969Z,11.80
2019-05-10T12:40:45.831Z,11.70
2019-05-10T12:43:14.375Z,11.70
2019-05-10T12:45:43.184Z,11.70
2019-05-10T12:48:11.967Z,11.50
2019-05-10T12:50:44.013Z,11.20
2019-05-10T12:53:15.694Z,10.90
2019-05-10T12:55:41.922Z,10.70
2019-05-10T12:58:10.718Z,10.10
2019-05-10T13:00:39.511Z,9.70
2019-05-10T13:03:12.814Z,9.90
2019-05-10T13:05:52.131Z,10.70
2019-05-10T13:08:09.465Z,11.10
2019-05-10T13:10:43.457Z,11.60
2019-05-10T13:13:09.081Z,11.90
2019-05-10T13:15:38.041Z,11.70
2019-05-10T13:18:06.970Z,11.40
2019-05-10T13:20:36.542Z,11.00
2019-05-10T13:23:10.166Z,10.60
2019-05-10T13:25:36.845Z,10.20
2019-05-10T13:28:11.071Z,9.90
2019-05-10T13:30:36.486Z,9.90
2019-05-10T13:33:05.575Z,10.20
2019-05-10T13:35:34.385Z,9.70
2019-05-10T13:38:06.221Z,9.70
2019-05-10T13:40:39.006Z,9.40
2019-05-10T13:43:04.586Z,9.30
2019-05-10T13:45:37.665Z,9.30
2019-05-10T13:48:03.969Z,9.30
2019-05-10T13:50:33.056Z,9.30
2019-05-10T13:53:03.364Z,9.30
2019-05-10T13:55:32.176Z,9.10
2019-05-10T13:58:01.002Z,9.30
2019-05-10T14:00:34.193Z,9.20
2019-05-10T14:03:05.084Z,9.50
2019-05-10T14:05:31.378Z,9.30
2019-05-10T14:08:00.177Z,9.30
2019-05-10T14:10:29.056Z,9.30
2019-05-10T14:13:02.532Z,9.10
2019-05-10T14:15:28.432Z,9.10
2019-05-10T14:17:57.229Z,9.00
2019-05-10T14:20:27.620Z,9.00
2019-05-10T14:22:58.962Z,9.30
2019-05-10T14:25:29.425Z,9.30
2019-05-10T14:27:58.008Z,9.60
2019-05-10T14:30:26.797Z,9.80
2019-05-10T14:32:55.604Z,9.80
2019-05-10T14:35:24.529Z,9.70
2019-05-10T14:37:53.475Z,9.60
2019-05-10T14:40:27.825Z,9.80
2019-05-10T14:42:52.812Z,9.80
2019-05-10T14:45:21.668Z,9.60
2019-05-10T14:47:50.786Z,9.20
2019-05-10T14:50:26.128Z,9.20
2019-05-10T14:52:50.784Z,9.10
2019-05-10T14:55:19.581Z,8.80
2019-05-10T14:57:48.403Z,8.90
2019-05-10T15:00:17.480Z,8.90
2019-05-10T15:02:46.284Z,8.90
2019-05-10T15:05:16.500Z,8.80
2019-05-10T15:07:45.764Z,8.60
2019-05-10T15:10:14.662Z,8.50
2019-05-10T15:12:43.480Z,8.50
2019-05-10T15:15:12.539Z,8.20
2019-05-10T15:17:41.417Z,8.10
2019-05-10T15:20:10.452Z,8.10
2019-05-10T15:22:39.265Z,8.30
2019-05-10T15:25:08.200Z,8.20
2019-05-10T15:27:37.001Z,8.30
2019-05-10T15:30:08.194Z,8.20
2019-05-10T15:32:37.240Z,8.30
2019-05-10T15:35:07.927Z,8.40
2019-05-10T15:37:40.718Z,8.50
2019-05-10T15:40:08.611Z,8.50
2019-05-10T15:42:38.475Z,8.50
2019-05-10T15:45:12.152Z,8.60
2019-05-10T15:47:50.523Z,8.50
2019-05-10T15:50:09.796Z,8.40
2019-05-10T15:52:39.450Z,8.50
2019-05-10T15:55:09.414Z,8.50
2019-05-10T15:57:38.255Z,8.30
2019-05-10T16:00:08.529Z,8.50
2019-05-10T16:02:37.417Z,8.10
2019-05-10T16:05:23.459Z,8.10
2019-05-10T16:07:37.793Z,8.10
2019-05-10T16:10:06.967Z,8.10
2019-05-10T16:12:37.885Z,8.00
2019-05-10T16:15:07.425Z,8.10
2019-05-10T16:17:36.233Z,8.20
2019-05-10T16:20:05.808Z,8.00
2019-05-10T16:22:34.624Z,8.20
2019-05-10T16:25:03.568Z,7.90
2019-05-10T16:27:33.894Z,8.30
2019-05-10T16:30:02.976Z,8.10
2019-05-10T16:32:34.690Z,8.10
2019-05-10T16:35:05.612Z,8.50
2019-05-10T16:37:32.884Z,8.20
2019-05-10T16:40:01.681Z,8.30
2019-05-10T16:42:34.574Z,8.30
2019-05-10T16:45:01.105Z,8.40
2019-05-10T16:47:29.964Z,8.30
2019-05-10T16:49:59.252Z,8.40
2019-05-10T16:52:28.223Z,8.40
2019-05-10T16:55:03.757Z,8.50
2019-05-10T16:57:31.888Z,8.50
2019-05-10T17:00:02.202Z,8.20
2019-05-10T17:02:28.726Z,8.00
2019-05-10T17:04:57.537Z,8.20
2019-05-10T17:07:26.402Z,8.30
2019-05-10T17:09:56.323Z,8.40
2019-05-10T17:12:27.567Z,8.60
2019-05-10T17:14:59.774Z,8.80
2019-05-10T17:17:31.228Z,9.10
2019-05-10T17:19:58.719Z,8.80
2019-05-10T17:22:27.364Z,8.80
2019-05-10T17:24:56.763Z,8.90
2019-05-10T17:27:26.699Z,8.50
2019-05-10T17:29:55.586Z,8.60
2019-05-10T17:32:26.546Z,8.50
2019-05-10T17:34:59.238Z,8.50
2019-05-10T17:37:29.770Z,8.50
2019-05-10T17:39:56.045Z,8.50
2019-05-10T17:42:24.925Z,8.40
2019-05-10T17:44:55.255Z,8.60
2019-05-10T17:47:27.138Z,8.40
2019-05-10T17:49:54.845Z,8.50
2019-05-10T17:52:23.659Z,8.30
2019-05-10T17:54:52.541Z,8.30
2019-05-10T17:57:21.338Z,8.40
2019-05-10T17:59:53.029Z,8.50
2019-05-10T18:02:20.737Z,8.90
2019-05-10T18:04:49.550Z,8.80
2019-05-10T18:07:18.412Z,8.80
2019-05-10T18:09:47.222Z,8.80
2019-05-10T18:12:20.391Z,8.90
2019-05-10T18:14:50.258Z,9.00
2019-05-10T18:17:20.846Z,8.60
2019-05-10T18:19:47.706Z,8.60
2019-05-10T18:22:16.511Z,8.10
2019-05-10T18:24:45.318Z,8.10
2019-05-10T18:27:14.116Z,7.80
2019-05-10T18:29:42.928Z,7.90
2019-05-10T18:32:12.032Z,7.60
2019-05-10T18:34:40.898Z,7.80
2019-05-10T18:37:09.706Z,7.50
2019-05-10T18:39:38.527Z,7.40
2019-05-10T18:42:07.414Z,7.50
2019-05-10T18:44:36.415Z,7.10
2019-05-10T18:47:05.416Z,6.80
2019-05-10T18:49:34.270Z,6.50
2019-05-10T18:52:06.417Z,6.40
2019-05-10T18:54:38.139Z,6.30
2019-05-10T18:57:11.547Z,6.40
2019-05-10T18:59:39.724Z,6.20
2019-05-10T19:02:11.802Z,6.10
2019-05-10T19:04:37.739Z,6.20
2019-05-10T19:07:10.216Z,6.10
2019-05-10T19:09:38.400Z,6.00
2019-05-10T19:12:18.039Z,5.90
2019-05-10T19:14:37.932Z,5.90
2019-05-10T19:17:09.427Z,5.80
2019-05-10T19:19:41.941Z,5.80
2019-05-10T19:22:10.261Z,6.00
2019-05-10T19:24:39.316Z,6.10
2019-05-10T19:27:09.342Z,6.40
2019-05-10T19:29:44.879Z,6.40
2019-05-10T19:32:11.548Z,6.30
2019-05-10T19:34:39.372Z,6.00
2019-05-10T19:37:08.203Z,5.90
2019-05-10T19:39:37.004Z,5.80
2019-05-10T19:42:06.288Z,5.70
2019-05-10T19:44:40.486Z,5.70
2019-05-10T19:47:05.841Z,5.50
2019-05-10T19:49:34.821Z,5.60
2019-05-10T19:52:03.700Z,5.20
2019-05-10T19:54:32.484Z,5.10
2019-05-10T19:57:01.311Z,5.20
2019-05-10T19:59:30.156Z,5.10
2019-05-10T20:01:59.065Z,5.20
2019-05-10T20:04:27.948Z,5.30
2019-05-10T20:06:56.901Z,5.20
2019-05-10T20:09:25.712Z,5.10
2019-05-10T20:11:54.508Z,4.80
2019-05-10T20:14:23.311Z,4.60
2019-05-10T20:16:53.473Z,5.00
2019-05-10T20:19:22.416Z,4.50
2019-05-10T20:21:51.223Z,4.40
2019-05-10T20:24:20.038Z,4.20
2019-05-10T20:26:48.854Z,4.20
2019-05-10T20:29:17.660Z,4.20
2019-05-10T20:31:46.553Z,4.10
2019-05-10T20:34:15.366Z,4.30
2019-05-10T20:36:44.190Z,4.10
2019-05-10T20:39:13.149Z,4.20
2019-05-10T20:41:41.985Z,3.90
2019-05-10T20:44:10.841Z,4.00
2019-05-10T20:46:39.655Z,3.80
2019-05-10T20:49:08.466Z,3.70
2019-05-10T20:51:37.278Z,3.70
2019-05-10T20:54:06.310Z,3.90
2019-05-10T20:56:35.126Z,3.70
2019-05-10T20:59:03.995Z,3.90
2019-05-10T21:01:33.186Z,3.60
2019-05-10T21:04:01.986Z,3.60
2019-05-10T21:06:30.801Z,3.40
2019-05-10T21:08:59.669Z,3.70
2019-05-10T21:11:28.496Z,3.60
2019-05-10T21:13:57.982Z,3.70
2019-05-10T21:16:27.083Z,3.40
2019-05-10T21:18:55.890Z,3.70
2019-05-10T21:21:24.688Z,3.40
2019-05-10T21:23:53.497Z,3.40
2019-05-10T21:26:22.386Z,3.70
2019-05-10T21:28:51.189Z,3.40
2019-05-10T21:31:20.009Z,3.40
2019-05-10T21:33:48.828Z,3.10
2019-05-10T21:36:17.714Z,3.20
2019-05-10T21:38:46.517Z,3.00
2019-05-10T21:41:15.376Z,3.10
2019-05-10T21:43:44.218Z,3.10
2019-05-10T21:46:13.095Z,3.30
2019-05-10T21:48:41.897Z,3.40
2019-05-10T21:51:10.700Z,2.70
2019-05-10T21:53:39.570Z,2.90
2019-05-10T21:56:08.357Z,2.70
2019-05-10T21:58:37.197Z,3.10
2019-05-10T22:01:05.986Z,2.80
2019-05-10T22:03:34.920Z,3.10
2019-05-10T22:06:03.944Z,3.00
2019-05-10T22:08:47.155Z,3.10
2019-05-10T22:11:03.415Z,3.10
2019-05-10T22:13:32.225Z,3.30
2019-05-10T22:16:01.029Z,3.00
2019-05-10T22:18:30.686Z,3.30
2019-05-10T22:20:59.480Z,3.30
2019-05-10T22:23:28.368Z,3.20
2019-05-10T22:25:57.164Z,3.70
2019-05-10T22:28:25.979Z,3.30
2019-05-10T22:30:54.868Z,3.30
2019-05-10T22:33:23.735Z,3.90
2019-05-10T22:35:52.536Z,3.90
2019-05-10T22:38:21.354Z,3.80
2019-05-10T22:40:50.161Z,3.70
2019-05-10T22:43:18.967Z,4.00
2019-05-10T22:45:47.760Z,3.70
2019-05-10T22:48:16.732Z,4.00
2019-05-10T22:50:45.537Z,3.80
2019-05-10T22:53:14.351Z,3.80
2019-05-10T22:55:43.154Z,3.70
2019-05-10T22:58:11.968Z,3.90
2019-05-10T23:00:40.769Z,3.70
2019-05-10T23:03:09.650Z,3.80
2019-05-10T23:05:38.441Z,3.70
2019-05-10T23:08:07.258Z,3.90
2019-05-10T23:10:36.056Z,4.20
2019-05-10T23:13:04.987Z,4.20
2019-05-10T23:15:33.813Z,4.00
2019-05-10T23:18:02.620Z,4.30
2019-05-10T23:20:31.409Z,4.30
2019-05-10T23:23:00.234Z,4.20
2019-05-10T23:25:29.102Z,4.20
2019-05-10T23:27:57.910Z,4.30
2019-05-10T23:30:26.708Z,4.00
2019-05-10T23:32:55.532Z,3.80
2019-05-10T23:35:24.318Z,3.80
2019-05-10T23:37:53.144Z,3.80
2019-05-10T23:40:22.017Z,3.80
2019-05-10T23:42:50.828Z,3.80
2019-05-10T23:45:19.684Z,3.70
2019-05-10T23:47:48.494Z,3.70
2019-05-10T23:50:17.365Z,3.70
2019-05-10T23:52:46.170Z,4.00
2019-05-10T23:55:15.132Z,3.70
2019-05-10T23:57:44.019Z,4.00
